Terminal Aerodrome Forecast
Issued by NWS

Home | Current Version | Previous Version | Text Only | Print | Product List | Glossary On
Versions: 1 2 3 4 5 6 7 8 9 10 11 12 13 14 15 16
000
FTUS44 KEWX 301200 AAA
TAFSSF
TAF AMD
KSSF 301241Z 3013/3112 15007KT P6SM OVC010
     FM301500 16012KT P6SM SCT250
     FM310900 17006KT P6SM BKN012=

USA.gov is the U.S. government's official web portal to all federal, state and local government web resources and services.